createdAt,value
2022-10-12T00:02:05.221Z,6.37
2022-10-12T00:04:31.650Z,6.41
2022-10-12T00:06:58.031Z,6.18
2022-10-12T00:09:24.395Z,6.22
2022-10-12T00:11:50.759Z,6.19
2022-10-12T00:14:17.134Z,6.16
2022-10-12T00:16:43.474Z,5.84
2022-10-12T00:19:13.185Z,5.99
2022-10-12T00:21:40.352Z,6.13
2022-10-12T00:24:07.140Z,6.04
2022-10-12T00:26:33.877Z,6.08
2022-10-12T00:29:02.100Z,6.10
2022-10-12T00:31:30.275Z,5.88
2022-10-12T00:34:00.190Z,5.98
2022-10-12T00:36:29.998Z,5.94
2022-10-12T00:38:56.668Z,5.88
2022-10-12T00:41:26.343Z,5.94
2022-10-12T00:43:57.820Z,6.00
2022-10-12T00:46:41.361Z,6.02
2022-10-12T00:49:20.173Z,6.04
2022-10-12T00:51:51.925Z,6.07
2022-10-12T00:54:23.631Z,6.01
2022-10-12T00:56:52.961Z,5.84
2022-10-12T00:59:28.371Z,5.99
2022-10-12T01:01:55.960Z,5.64
2022-10-12T01:04:23.711Z,5.66
2022-10-12T01:06:51.091Z,5.74
2022-10-12T01:09:17.929Z,5.65
2022-10-12T01:11:44.244Z,5.61
2022-10-12T01:14:11.536Z,5.73
2022-10-12T01:16:37.861Z,5.72
2022-10-12T01:19:38.554Z,5.64
2022-10-12T01:22:11.935Z,5.45
2022-10-12T01:25:01.163Z,5.45
2022-10-12T01:27:40.395Z,5.49
2022-10-12T01:30:29.010Z,5.54
2022-10-12T01:33:17.658Z,5.49
2022-10-12T01:35:54.642Z,5.65
2022-10-12T01:38:29.976Z,5.40
2022-10-12T01:41:01.740Z,5.45
2022-10-12T01:43:40.502Z,5.45
2022-10-12T01:46:08.123Z,5.28
2022-10-12T01:48:34.586Z,5.42
2022-10-12T01:51:02.548Z,5.50
2022-10-12T01:53:41.659Z,5.40
2022-10-12T01:56:38.425Z,5.35
2022-10-12T01:59:22.522Z,5.21
2022-10-12T02:02:04.096Z,5.23
2022-10-12T02:04:49.252Z,5.27
2022-10-12T02:07:32.613Z,5.19
2022-10-12T02:10:02.326Z,5.12
2022-10-12T02:12:31.461Z,5.07
2022-10-12T02:15:02.624Z,5.10
2022-10-12T02:17:30.269Z,5.19
2022-10-12T02:19:59.339Z,5.05
2022-10-12T02:22:33.997Z,5.13
2022-10-12T02:25:04.090Z,5.08
2022-10-12T02:27:33.513Z,4.97
2022-10-12T02:30:00.120Z,4.98
2022-10-12T02:32:41.679Z,5.03
2022-10-12T02:35:10.300Z,4.99
2022-10-12T02:37:43.982Z,5.04
2022-10-12T02:40:21.554Z,5.05
2022-10-12T02:43:09.911Z,5.01
2022-10-12T02:45:40.816Z,4.94
2022-10-12T02:48:09.424Z,4.98
2022-10-12T02:50:36.464Z,5.12
2022-10-12T02:53:04.391Z,5.20
2022-10-12T02:55:31.415Z,5.09
2022-10-12T02:57:57.839Z,4.99
2022-10-12T03:00:24.336Z,4.99
2022-10-12T03:02:50.705Z,4.91
2022-10-12T03:05:17.070Z,4.94
2022-10-12T03:07:43.463Z,4.89
2022-10-12T03:10:09.843Z,4.75
2022-10-12T03:12:36.229Z,4.77
2022-10-12T03:15:02.660Z,4.82
2022-10-12T03:17:29.014Z,4.83
2022-10-12T03:19:55.365Z,4.76
2022-10-12T03:22:21.773Z,4.82
2022-10-12T03:24:48.487Z,4.83
2022-10-12T03:27:14.897Z,4.78
2022-10-12T03:29:41.280Z,4.84
2022-10-12T03:32:07.656Z,4.78
2022-10-12T03:34:34.011Z,4.75
2022-10-12T03:37:00.353Z,4.75
2022-10-12T03:39:26.704Z,4.70
2022-10-12T03:41:53.100Z,4.71
2022-10-12T03:44:19.461Z,4.59
2022-10-12T03:46:45.787Z,4.56
2022-10-12T03:49:12.150Z,4.54
2022-10-12T03:51:38.540Z,4.61
2022-10-12T03:54:05.108Z,4.57
2022-10-12T03:56:31.449Z,4.65
2022-10-12T03:58:57.848Z,4.55
2022-10-12T04:01:24.568Z,4.63
2022-10-12T04:03:51.044Z,4.51
2022-10-12T04:06:17.441Z,4.59
2022-10-12T04:08:48.341Z,4.65
2022-10-12T04:11:16.931Z,4.57
2022-10-12T04:13:43.963Z,4.46
2022-10-12T04:16:10.417Z,4.53
2022-10-12T04:18:36.879Z,4.52
2022-10-12T04:21:15.746Z,4.39
2022-10-12T04:23:43.033Z,4.42
2022-10-12T04:26:09.909Z,4.49
2022-10-12T04:28:36.308Z,4.53
2022-10-12T04:31:02.744Z,4.41
2022-10-12T04:33:29.121Z,4.41
2022-10-12T04:35:55.489Z,4.36
2022-10-12T04:38:21.880Z,4.36
2022-10-12T04:40:49.028Z,4.41
2022-10-12T04:43:16.554Z,4.43
2022-10-12T04:45:42.952Z,4.36
2022-10-12T04:48:09.305Z,4.38
2022-10-12T04:50:36.012Z,4.40
2022-10-12T04:53:02.376Z,4.40
2022-10-12T04:55:28.892Z,4.27
2022-10-12T04:57:55.245Z,4.36
2022-10-12T05:00:21.641Z,4.35
2022-10-12T05:02:48.025Z,4.34
2022-10-12T05:05:14.475Z,4.45
2022-10-12T05:07:41.082Z,4.45
2022-10-12T05:10:08.125Z,4.35
2022-10-12T05:12:34.448Z,4.40
2022-10-12T05:15:00.829Z,4.47
2022-10-12T05:17:27.192Z,4.44
2022-10-12T05:19:53.555Z,4.48
2022-10-12T05:22:19.965Z,4.53
2022-10-12T05:24:50.043Z,4.56
2022-10-12T05:27:19.276Z,4.56
2022-10-12T05:29:45.695Z,4.62
2022-10-12T05:32:12.031Z,4.49
2022-10-12T05:34:38.414Z,4.44
2022-10-12T05:37:04.949Z,4.37
2022-10-12T05:39:31.551Z,4.34
2022-10-12T05:41:58.640Z,4.38
2022-10-12T05:44:25.024Z,4.39
2022-10-12T05:46:51.395Z,4.42
2022-10-12T05:49:17.799Z,4.40
2022-10-12T05:51:44.376Z,4.38
2022-10-12T05:54:10.727Z,4.45
2022-10-12T05:56:37.087Z,4.55
2022-10-12T05:59:04.060Z,4.46
2022-10-12T06:01:30.943Z,4.50
2022-10-12T06:03:57.332Z,4.55
2022-10-12T06:06:23.838Z,4.56
2022-10-12T06:08:50.311Z,4.53
2022-10-12T06:11:16.817Z,4.46
2022-10-12T06:13:43.166Z,4.50
2022-10-12T06:16:09.522Z,4.32
2022-10-12T06:18:35.837Z,4.53
2022-10-12T06:21:31.996Z,4.68
2022-10-12T06:23:48.622Z,4.86
2022-10-12T06:26:16.287Z,4.90
2022-10-12T06:28:43.529Z,5.08
2022-10-12T06:31:11.116Z,5.21
2022-10-12T06:33:37.475Z,5.28
2022-10-12T06:36:03.960Z,5.24
2022-10-12T06:38:30.285Z,5.30
2022-10-12T06:40:56.632Z,5.34
2022-10-12T06:43:24.153Z,5.45
2022-10-12T06:45:50.607Z,5.55
2022-10-12T06:48:18.750Z,5.64
2022-10-12T06:50:46.511Z,5.67
2022-10-12T06:53:12.833Z,5.71
2022-10-12T06:55:40.381Z,5.83
2022-10-12T06:58:06.721Z,5.78
2022-10-12T07:00:33.107Z,5.86
2022-10-12T07:02:59.462Z,5.94
2022-10-12T07:05:25.881Z,5.97
2022-10-12T07:07:52.205Z,6.03
2022-10-12T07:10:18.571Z,6.11
2022-10-12T07:12:44.988Z,6.24
2022-10-12T07:15:11.409Z,6.46
2022-10-12T07:17:38.036Z,6.46
2022-10-12T07:20:05.670Z,6.50
2022-10-12T07:22:32.114Z,6.37
2022-10-12T07:24:58.603Z,6.58
2022-10-12T07:27:24.972Z,6.77
2022-10-12T07:29:51.530Z,6.83
2022-10-12T07:32:17.956Z,7.07
2022-10-12T07:34:44.735Z,7.19
2022-10-12T07:37:11.505Z,7.49
2022-10-12T07:39:38.071Z,7.24
2022-10-12T07:42:04.492Z,7.45
2022-10-12T07:44:31.588Z,7.40
2022-10-12T07:46:58.344Z,7.47
2022-10-12T07:49:24.665Z,7.68
2022-10-12T07:51:51.021Z,7.62
2022-10-12T07:54:21.051Z,7.88
2022-10-12T07:56:49.124Z,7.88
2022-10-12T07:59:16.554Z,7.80
2022-10-12T08:01:43.508Z,7.93
2022-10-12T08:04:10.344Z,8.22
2022-10-12T08:06:36.990Z,8.18
2022-10-12T08:09:04.022Z,8.20
2022-10-12T08:11:30.532Z,8.41
2022-10-12T08:13:56.998Z,8.57
2022-10-12T08:16:23.944Z,8.71
2022-10-12T08:18:50.342Z,8.74
2022-10-12T08:21:17.833Z,8.80
2022-10-12T08:23:45.076Z,8.70
2022-10-12T08:26:12.141Z,9.11
2022-10-12T08:28:38.613Z,9.31
2022-10-12T08:31:10.137Z,9.26
2022-10-12T08:33:36.890Z,9.69
2022-10-12T08:36:05.472Z,9.63
2022-10-12T08:38:32.019Z,9.67
2022-10-12T08:41:19.013Z,9.69
2022-10-12T08:44:04.279Z,9.83
2022-10-12T08:46:30.838Z,10.05
2022-10-12T08:49:16.343Z,10.20
2022-10-12T08:52:02.694Z,10.19
2022-10-12T08:54:38.641Z,10.18
2022-10-12T08:57:05.114Z,10.51
2022-10-12T08:59:33.370Z,10.76
2022-10-12T09:02:25.717Z,10.93
2022-10-12T09:05:01.296Z,10.98
2022-10-12T09:07:36.066Z,10.99
2022-10-12T09:10:17.336Z,11.46
2022-10-12T09:13:05.448Z,11.37
2022-10-12T09:15:36.810Z,11.40
2022-10-12T09:18:11.582Z,11.42
2022-10-12T09:20:47.011Z,11.29
2022-10-12T09:23:16.381Z,11.59
2022-10-12T09:25:43.199Z,11.82
2022-10-12T09:28:19.772Z,11.81
2022-10-12T09:31:02.417Z,11.62
2022-10-12T09:33:37.995Z,11.77
2022-10-12T09:36:04.720Z,11.62
2022-10-12T09:38:31.159Z,11.77
2022-10-12T09:40:57.488Z,11.92
2022-10-12T09:43:24.189Z,12.02
2022-10-12T09:45:51.584Z,12.20
2022-10-12T09:48:20.910Z,12.26
2022-10-12T09:51:03.298Z,12.44
2022-10-12T09:53:34.066Z,12.51
2022-10-12T09:56:30.204Z,12.51
2022-10-12T09:59:02.098Z,12.83
2022-10-12T10:01:30.543Z,13.03
2022-10-12T10:04:13.477Z,13.22
2022-10-12T10:06:45.434Z,13.30
2022-10-12T10:09:26.401Z,13.24
2022-10-12T10:11:53.170Z,13.29
2022-10-12T10:14:19.657Z,13.41
2022-10-12T10:16:51.543Z,13.71
2022-10-12T10:19:21.300Z,13.61
2022-10-12T10:21:47.873Z,14.04
2022-10-12T10:24:27.911Z,13.71
2022-10-12T10:26:56.554Z,13.76
2022-10-12T10:29:32.275Z,14.01
2022-10-12T10:32:24.428Z,14.17
2022-10-12T10:35:05.518Z,14.09
2022-10-12T10:37:33.304Z,14.35
2022-10-12T10:40:00.806Z,14.02
2022-10-12T10:42:31.882Z,14.10
2022-10-12T10:45:08.603Z,14.42
2022-10-12T10:47:43.251Z,14.71
2022-10-12T10:50:25.426Z,14.73
2022-10-12T10:52:58.579Z,14.72
2022-10-12T10:55:47.170Z,14.66
2022-10-12T10:58:23.492Z,14.60
2022-10-12T11:00:53.286Z,14.84
2022-10-12T11:03:29.878Z,14.98
2022-10-12T11:06:20.524Z,15.10
2022-10-12T11:08:50.784Z,14.90
2022-10-12T11:11:23.522Z,14.89
2022-10-12T11:14:03.966Z,14.96
2022-10-12T11:16:39.797Z,14.86
2022-10-12T11:19:42.254Z,15.06
2022-10-12T11:22:16.823Z,15.18
2022-10-12T11:24:52.287Z,15.14
2022-10-12T11:27:38.254Z,15.06
2022-10-12T11:30:14.045Z,15.44
2022-10-12T11:32:48.458Z,15.07
2022-10-12T11:35:21.134Z,15.09
2022-10-12T11:38:00.487Z,15.26
2022-10-12T11:40:55.440Z,15.40
2022-10-12T11:43:24.009Z,15.39
2022-10-12T11:45:57.077Z,15.68
2022-10-12T11:48:28.743Z,15.76
2022-10-12T11:51:02.855Z,15.69
2022-10-12T11:53:53.686Z,15.86
2022-10-12T11:56:48.692Z,15.69
2022-10-12T11:59:38.915Z,16.00
2022-10-12T12:02:14.779Z,15.99
2022-10-12T12:04:44.450Z,15.96
2022-10-12T12:07:16.970Z,15.96
2022-10-12T12:09:50.083Z,16.21
2022-10-12T12:12:23.071Z,16.23
2022-10-12T12:14:55.316Z,16.48
2022-10-12T12:17:21.911Z,16.46
2022-10-12T12:19:50.607Z,16.31
2022-10-12T12:22:24.637Z,16.73
2022-10-12T12:24:54.538Z,16.75
2022-10-12T12:27:33.884Z,16.70
2022-10-12T12:30:02.762Z,17.21
2022-10-12T12:32:45.975Z,17.37
2022-10-12T12:35:29.073Z,17.38
2022-10-12T12:38:08.098Z,17.54
2022-10-12T12:40:35.287Z,17.76
2022-10-12T12:43:56.715Z,17.56
2022-10-12T12:46:26.044Z,17.59
2022-10-12T12:48:52.342Z,17.54
2022-10-12T12:51:26.675Z,17.32
2022-10-12T12:54:00.431Z,17.40
2022-10-12T12:56:49.671Z,17.14
2022-10-12T12:59:27.867Z,17.27
2022-10-12T13:02:31.751Z,17.04
2022-10-12T13:05:36.589Z,16.97
2022-10-12T13:08:26.057Z,16.85
2022-10-12T13:10:55.512Z,16.91
2022-10-12T13:13:39.180Z,16.69
2022-10-12T13:17:09.579Z,17.03
2022-10-12T13:19:15.780Z,16.90
2022-10-12T13:21:48.935Z,17.02
2022-10-12T13:24:22.170Z,17.06
2022-10-12T13:26:51.556Z,17.35
2022-10-12T13:29:41.522Z,17.28
2022-10-12T13:32:20.579Z,16.82
2022-10-12T13:34:49.863Z,16.77
2022-10-12T13:37:16.872Z,16.78
2022-10-12T13:39:46.895Z,16.91
2022-10-12T13:42:17.912Z,17.03
2022-10-12T13:44:47.268Z,16.95
2022-10-12T13:47:43.022Z,17.00
2022-10-12T13:50:18.754Z,17.32
2022-10-12T13:52:53.184Z,17.41
2022-10-12T13:55:26.955Z,17.20
2022-10-12T13:57:53.374Z,17.59
2022-10-12T14:00:25.284Z,17.72
2022-10-12T14:02:56.836Z,17.71
2022-10-12T14:05:26.078Z,17.77
2022-10-12T14:07:54.721Z,17.61
2022-10-12T14:10:28.740Z,17.72
2022-10-12T14:12:56.671Z,17.80
2022-10-12T14:15:27.719Z,17.73
2022-10-12T14:17:54.847Z,17.60
2022-10-12T14:20:37.344Z,17.52
2022-10-12T14:23:12.872Z,17.71
2022-10-12T14:25:51.225Z,17.80
2022-10-12T14:28:32.682Z,17.53
2022-10-12T14:30:59.190Z,17.83
2022-10-12T14:33:26.619Z,17.71
2022-10-12T14:36:15.504Z,17.62
2022-10-12T14:38:45.503Z,17.53
2022-10-12T14:41:38.630Z,17.44
2022-10-12T14:44:21.759Z,17.81
2022-10-12T14:46:51.088Z,18.14
2022-10-12T14:49:39.827Z,18.12
2022-10-12T14:52:07.514Z,17.94
2022-10-12T14:54:34.266Z,17.84
2022-10-12T14:57:12.247Z,17.78
2022-10-12T14:59:38.852Z,17.26
2022-10-12T15:02:15.010Z,17.10
2022-10-12T15:04:41.422Z,17.05
2022-10-12T15:07:19.463Z,17.18
2022-10-12T15:09:46.858Z,17.29
2022-10-12T15:12:16.427Z,17.54
2022-10-12T15:14:43.315Z,17.44
2022-10-12T15:17:14.778Z,17.35
2022-10-12T15:19:43.330Z,17.29
2022-10-12T15:22:29.912Z,17.14
2022-10-12T15:24:56.293Z,17.47
2022-10-12T15:27:22.684Z,17.47
2022-10-12T15:29:49.119Z,17.47
2022-10-12T15:32:17.744Z,17.59
2022-10-12T15:34:44.947Z,17.40
2022-10-12T15:37:11.434Z,17.30
2022-10-12T15:39:37.865Z,17.17
2022-10-12T15:42:04.428Z,17.09
2022-10-12T15:44:30.772Z,17.15
2022-10-12T15:46:57.145Z,17.00
2022-10-12T15:49:26.317Z,17.13
2022-10-12T15:51:54.840Z,16.88
2022-10-12T15:54:21.247Z,16.72
2022-10-12T15:56:47.600Z,16.56
2022-10-12T15:59:14.048Z,16.52
2022-10-12T16:01:42.490Z,16.55
2022-10-12T16:04:13.435Z,16.57
2022-10-12T16:06:40.035Z,16.46
2022-10-12T16:09:06.513Z,16.38
2022-10-12T16:11:32.848Z,16.31
2022-10-12T16:13:59.483Z,16.08
2022-10-12T16:16:25.985Z,16.00
2022-10-12T16:18:53.833Z,15.86
2022-10-12T16:21:20.374Z,15.55
2022-10-12T16:23:46.764Z,15.59
2022-10-12T16:26:15.157Z,15.66
2022-10-12T16:28:42.463Z,15.63
2022-10-12T16:31:15.758Z,15.64
2022-10-12T16:33:42.328Z,15.63
2022-10-12T16:36:10.656Z,15.46
2022-10-12T16:38:37.113Z,15.39
2022-10-12T16:41:08.639Z,15.53
2022-10-12T16:43:35.027Z,15.25
2022-10-12T16:46:01.396Z,14.99
2022-10-12T16:48:27.721Z,14.98
2022-10-12T16:50:54.121Z,15.20
2022-10-12T16:53:20.464Z,15.19
2022-10-12T16:55:46.855Z,15.14
2022-10-12T16:58:13.198Z,15.10
2022-10-12T17:00:40.926Z,15.00
2022-10-12T17:03:08.648Z,14.90
2022-10-12T17:05:35.165Z,14.91
2022-10-12T17:08:01.522Z,14.45
2022-10-12T17:10:28.046Z,14.46
2022-10-12T17:12:54.412Z,14.56
2022-10-12T17:15:20.797Z,14.50
2022-10-12T17:17:47.139Z,14.12
2022-10-12T17:20:13.528Z,14.09
2022-10-12T17:22:39.925Z,13.94
2022-10-12T17:25:06.623Z,13.96
2022-10-12T17:27:32.975Z,13.87
2022-10-12T17:29:59.509Z,13.86
2022-10-12T17:32:26.475Z,13.97
2022-10-12T17:34:53.031Z,13.75
2022-10-12T17:37:21.124Z,13.68
2022-10-12T17:39:48.330Z,13.64
2022-10-12T17:42:15.337Z,13.73
2022-10-12T17:44:41.918Z,13.49
2022-10-12T17:47:08.561Z,13.17
2022-10-12T17:49:34.968Z,13.28
2022-10-12T17:52:01.458Z,13.41
2022-10-12T17:54:28.100Z,13.36
2022-10-12T17:56:55.600Z,13.17
2022-10-12T17:59:22.577Z,13.04
2022-10-12T18:01:49.431Z,12.92
2022-10-12T18:04:16.183Z,12.98
2022-10-12T18:06:42.681Z,12.81
2022-10-12T18:09:09.256Z,12.77
2022-10-12T18:11:37.480Z,12.89
2022-10-12T18:14:03.936Z,12.61
2022-10-12T18:16:32.999Z,12.48
2022-10-12T18:19:01.748Z,12.46
2022-10-12T18:21:30.919Z,12.50
2022-10-12T18:23:57.291Z,12.54
2022-10-12T18:26:24.886Z,12.50
2022-10-12T18:28:53.219Z,12.27
2022-10-12T18:31:25.136Z,12.27
2022-10-12T18:33:52.823Z,12.29
2022-10-12T18:36:20.371Z,12.43
2022-10-12T18:38:47.459Z,12.59
2022-10-12T18:41:16.979Z,12.54
2022-10-12T18:43:43.633Z,12.53
2022-10-12T18:46:12.300Z,12.49
2022-10-12T18:48:39.227Z,12.38
2022-10-12T18:51:18.505Z,12.32
2022-10-12T18:53:45.593Z,12.30
2022-10-12T18:56:12.632Z,12.20
2022-10-12T18:58:40.520Z,12.13
2022-10-12T19:01:15.683Z,12.07
2022-10-12T19:03:42.424Z,12.04
2022-10-12T19:06:14.220Z,11.55
2022-10-12T19:08:43.380Z,11.44
2022-10-12T19:11:11.020Z,11.67
2022-10-12T19:13:37.982Z,11.57
2022-10-12T19:16:15.115Z,11.65
2022-10-12T19:18:42.420Z,11.67
2022-10-12T19:21:14.818Z,11.70
2022-10-12T19:23:42.144Z,11.81
2022-10-12T19:26:18.834Z,11.71
2022-10-12T19:28:46.002Z,11.68
2022-10-12T19:31:21.850Z,11.74
2022-10-12T19:33:48.459Z,11.45
2022-10-12T19:36:17.896Z,11.32
2022-10-12T19:38:46.118Z,11.32
2022-10-12T19:41:13.170Z,11.18
2022-10-12T19:43:39.923Z,11.03
2022-10-12T19:46:09.609Z,10.94
2022-10-12T19:48:37.490Z,10.98
2022-10-12T19:51:10.537Z,10.91
2022-10-12T19:53:37.744Z,10.76
2022-10-12T19:56:07.065Z,10.67
2022-10-12T19:58:33.587Z,10.75
2022-10-12T20:01:08.472Z,10.59
2022-10-12T20:03:35.624Z,10.50
2022-10-12T20:06:06.029Z,10.47
2022-10-12T20:08:33.024Z,10.43
2022-10-12T20:10:59.614Z,10.41
2022-10-12T20:13:26.059Z,10.33
2022-10-12T20:15:53.289Z,10.42
2022-10-12T20:18:19.788Z,10.42
2022-10-12T20:20:46.455Z,10.43
2022-10-12T20:23:13.269Z,10.41
2022-10-12T20:25:41.453Z,10.57
2022-10-12T20:28:08.010Z,10.56
2022-10-12T20:30:34.706Z,10.56
2022-10-12T20:33:01.146Z,10.63
2022-10-12T20:35:28.228Z,10.66
2022-10-12T20:37:55.028Z,10.68
2022-10-12T20:40:21.444Z,10.73
2022-10-12T20:42:47.826Z,10.98
2022-10-12T20:45:14.560Z,10.87
2022-10-12T20:47:44.345Z,10.83
2022-10-12T20:50:12.674Z,10.79
2022-10-12T20:52:39.641Z,10.77
2022-10-12T20:55:06.463Z,10.80
2022-10-12T20:57:32.901Z,10.60
2022-10-12T20:59:59.275Z,10.62
2022-10-12T21:02:25.876Z,10.86
2022-10-12T21:04:52.407Z,10.77
2022-10-12T21:07:19.014Z,10.75
2022-10-12T21:09:45.535Z,10.61
2022-10-12T21:12:11.913Z,10.60
2022-10-12T21:14:38.280Z,10.53
2022-10-12T21:17:04.762Z,10.37
2022-10-12T21:19:31.093Z,10.28
2022-10-12T21:21:57.543Z,10.20
2022-10-12T21:24:24.070Z,10.11
2022-10-12T21:26:51.774Z,10.06
2022-10-12T21:29:18.327Z,9.94
2022-10-12T21:31:44.941Z,9.88
2022-10-12T21:34:11.746Z,9.77
2022-10-12T21:36:38.856Z,9.80
2022-10-12T21:39:11.904Z,9.82
2022-10-12T21:41:38.698Z,9.75
2022-10-12T21:44:05.318Z,9.83
2022-10-12T21:46:33.778Z,9.66
2022-10-12T21:49:01.794Z,9.78
2022-10-12T21:51:30.402Z,9.61
2022-10-12T21:53:57.218Z,9.38
2022-10-12T21:56:31.759Z,9.49
2022-10-12T21:58:59.926Z,9.45
2022-10-12T22:01:34.556Z,9.40
2022-10-12T22:04:03.130Z,9.53
2022-10-12T22:06:30.038Z,9.49
2022-10-12T22:08:58.753Z,9.41
2022-10-12T22:11:27.205Z,9.27
2022-10-12T22:13:59.131Z,9.17
2022-10-12T22:16:26.389Z,9.12
2022-10-12T22:18:52.736Z,9.05
2022-10-12T22:21:19.341Z,9.05
2022-10-12T22:23:46.139Z,8.94
2022-10-12T22:26:18.843Z,8.83
2022-10-12T22:28:45.815Z,8.90
2022-10-12T22:31:14.241Z,8.76
2022-10-12T22:33:41.032Z,8.71
2022-10-12T22:36:08.399Z,8.60
2022-10-12T22:38:35.368Z,8.53
2022-10-12T22:41:06.234Z,8.45
2022-10-12T22:43:34.209Z,8.49
2022-10-12T22:46:00.921Z,8.53
2022-10-12T22:48:27.995Z,8.31
2022-10-12T22:50:55.131Z,8.19
2022-10-12T22:53:23.325Z,8.14
2022-10-12T22:55:53.798Z,8.32
2022-10-12T22:58:20.124Z,8.27
2022-10-12T23:00:46.515Z,8.20
2022-10-12T23:03:12.902Z,8.26
2022-10-12T23:05:39.240Z,8.18
2022-10-12T23:08:05.649Z,8.13
2022-10-12T23:10:32.180Z,8.22
2022-10-12T23:12:58.568Z,8.12
2022-10-12T23:15:24.967Z,8.06
2022-10-12T23:17:51.285Z,7.84
2022-10-12T23:20:17.650Z,7.90
2022-10-12T23:22:43.990Z,7.91
2022-10-12T23:25:10.394Z,7.83
2022-10-12T23:27:36.781Z,7.82
2022-10-12T23:30:03.366Z,7.71
2022-10-12T23:32:30.405Z,7.64
2022-10-12T23:34:56.743Z,7.52
2022-10-12T23:37:23.095Z,7.54
2022-10-12T23:39:49.537Z,7.53
2022-10-12T23:42:16.190Z,7.57
2022-10-12T23:44:42.790Z,7.72
2022-10-12T23:47:09.145Z,7.68
2022-10-12T23:49:35.575Z,7.78
2022-10-12T23:52:02.037Z,7.73
2022-10-12T23:54:28.381Z,7.75
2022-10-12T23:56:54.815Z,7.79
2022-10-12T23:59:21.191Z,7.72
